createdAt,value
2024-05-09T00:00:43.660Z,62044.13
2024-05-09T00:03:12.257Z,62042.47
2024-05-09T00:05:44.440Z,62043.41
2024-05-09T00:08:12.829Z,62038.63
2024-05-09T00:10:41.428Z,62043.78
2024-05-09T00:13:10.993Z,62041.19
2024-05-09T00:15:39.483Z,62033.16
2024-05-09T00:18:08.121Z,62035.00
2024-05-09T00:20:39.804Z,62017.81
2024-05-09T00:23:13.629Z,62018.34
2024-05-09T00:25:45.630Z,62016.53
2024-05-09T00:28:14.048Z,62016.53
2024-05-09T00:30:41.946Z,62013.44
2024-05-09T00:33:11.026Z,62011.59
2024-05-09T00:35:39.894Z,62014.16
2024-05-09T00:38:08.062Z,62010.13
2024-05-09T00:40:40.916Z,62011.06
2024-05-09T00:43:14.590Z,62003.00
2024-05-09T00:45:43.801Z,61999.16
2024-05-09T00:48:17.498Z,62002.13
2024-05-09T00:50:48.721Z,61992.59
2024-05-09T00:53:18.656Z,61990.41
2024-05-09T00:55:48.045Z,61990.78
2024-05-09T00:58:18.117Z,61979.25
2024-05-09T01:00:46.321Z,61982.72
2024-05-09T01:03:14.595Z,61971.38
2024-05-09T01:05:43.733Z,61967.94
2024-05-09T01:08:13.349Z,61963.72
2024-05-09T01:10:44.067Z,61970.31
2024-05-09T01:13:14.009Z,61970.13
2024-05-09T01:15:41.833Z,61972.16
2024-05-09T01:18:12.550Z,61962.63
2024-05-09T01:20:44.492Z,61966.66
2024-05-09T01:23:15.627Z,61964.09
2024-05-09T01:25:45.894Z,61962.66
2024-05-09T01:28:15.066Z,61955.34
2024-05-09T01:30:42.884Z,61945.84
2024-05-09T01:33:12.129Z,61945.47
2024-05-09T01:35:42.054Z,61933.25
2024-05-09T01:38:16.928Z,61931.41
2024-05-09T01:40:46.186Z,61931.78
2024-05-09T01:43:14.300Z,61925.75
2024-05-09T01:45:42.697Z,61920.63
2024-05-09T01:48:11.552Z,61921.03
2024-05-09T01:50:42.275Z,61916.09
2024-05-09T01:53:13.013Z,61904.91
2024-05-09T01:55:41.524Z,61899.44
2024-05-09T01:58:09.505Z,61903.47
2024-05-09T02:00:41.148Z,61897.78
2024-05-09T02:03:14.588Z,61901.63
2024-05-09T02:05:52.206Z,61902.72
2024-05-09T02:08:22.125Z,61902.72
2024-05-09T02:10:50.848Z,61898.88
2024-05-09T02:13:18.942Z,61898.72
2024-05-09T02:15:46.781Z,61900.75
2024-05-09T02:18:14.704Z,61902.91
2024-05-09T02:20:43.338Z,61895.63
2024-05-09T02:23:12.174Z,61891.59
2024-05-09T02:25:41.616Z,61893.25
2024-05-09T02:28:09.463Z,61884.81
2024-05-09T02:30:40.710Z,61893.63
2024-05-09T02:33:12.278Z,61888.84
2024-05-09T02:35:43.970Z,61887.38
2024-05-09T02:38:12.833Z,61879.00
2024-05-09T02:40:41.092Z,61873.16
2024-05-09T02:43:10.670Z,61870.78
2024-05-09T02:45:42.313Z,61862.00
2024-05-09T02:48:14.136Z,61867.31
2024-05-09T02:50:44.254Z,61868.41
2024-05-09T02:53:12.560Z,61857.44
2024-05-09T02:55:41.908Z,61856.72
2024-05-09T02:58:10.752Z,61862.41
2024-05-09T03:00:41.558Z,61863.66
2024-05-09T03:03:13.916Z,61864.75
2024-05-09T03:05:47.086Z,61858.94
2024-05-09T03:08:15.063Z,61854.00
2024-05-09T03:10:43.387Z,61855.28
2024-05-09T03:13:14.953Z,61856.94
2024-05-09T03:15:45.226Z,61852.72
2024-05-09T03:18:13.570Z,61845.97
2024-05-09T03:20:44.013Z,61838.47
2024-05-09T03:23:12.398Z,61829.34
2024-05-09T03:25:40.224Z,61825.91
2024-05-09T03:28:07.979Z,61820.97
2024-05-09T03:30:41.112Z,61813.50
2024-05-09T03:33:17.392Z,61812.41
2024-05-09T03:35:48.001Z,61812.94
2024-05-09T03:38:17.055Z,61815.50
2024-05-09T03:40:47.028Z,61813.88
2024-05-09T03:43:14.917Z,61803.47
2024-05-09T03:45:43.283Z,61803.47
2024-05-09T03:48:11.583Z,61801.81
2024-05-09T03:50:39.757Z,61800.75
2024-05-09T03:53:11.681Z,61800.34
2024-05-09T03:55:39.545Z,61801.44
2024-05-09T03:58:12.748Z,61800.75
2024-05-09T04:00:42.316Z,61798.53
2024-05-09T04:03:12.417Z,61788.88
2024-05-09T04:05:43.028Z,61790.31
2024-05-09T04:08:11.726Z,61793.63
2024-05-09T04:10:39.630Z,61788.31
2024-05-09T04:13:07.335Z,61796.91
2024-05-09T04:15:35.041Z,61789.59
2024-05-09T04:18:03.197Z,61798.00
2024-05-09T04:20:38.196Z,61795.44
2024-05-09T04:23:12.841Z,61801.28
2024-05-09T04:25:43.432Z,61803.47
2024-05-09T04:28:11.356Z,61805.84
2024-05-09T04:30:41.175Z,61808.56
2024-05-09T04:33:12.160Z,61810.56
2024-05-09T04:35:43.081Z,61815.31
2024-05-09T04:38:11.718Z,61814.22
2024-05-09T04:40:39.515Z,61818.44
2024-05-09T04:43:14.025Z,61819.50
2024-05-09T04:45:42.181Z,61825.00
2024-05-09T04:48:10.201Z,61823.16
2024-05-09T04:50:39.527Z,61829.19
2024-05-09T04:53:10.405Z,61837.59
2024-05-09T04:55:40.143Z,61848.91
2024-05-09T04:58:11.936Z,61852.34
2024-05-09T05:00:41.208Z,61851.28
2024-05-09T05:03:13.823Z,61863.66
2024-05-09T05:05:45.663Z,61863.66
2024-05-09T05:08:15.672Z,61876.44
2024-05-09T05:10:44.509Z,61873.88
2024-05-09T05:13:17.871Z,61892.31
2024-05-09T05:15:47.634Z,61897.25
2024-05-09T05:18:16.755Z,61905.84
2024-05-09T05:20:45.311Z,61910.78
2024-05-09T05:23:15.138Z,61914.25
2024-05-09T05:25:43.589Z,61919.72
2024-05-09T05:28:11.774Z,61933.06
2024-05-09T05:30:41.010Z,61935.06
2024-05-09T05:33:11.908Z,61941.47
2024-05-09T05:35:41.903Z,61945.13
2024-05-09T05:38:10.994Z,61949.84
2024-05-09T05:40:40.166Z,61963.19
2024-05-09T05:43:10.701Z,61962.63
2024-05-09T05:45:39.289Z,61979.09
2024-05-09T05:48:08.140Z,61977.97
2024-05-09T05:50:38.184Z,61993.53
2024-05-09T05:53:08.384Z,61997.34
2024-05-09T05:55:41.129Z,62002.28
2024-05-09T05:58:10.520Z,62003.38
2024-05-09T06:00:40.430Z,62016.16
2024-05-09T06:03:10.423Z,62031.88
2024-05-09T06:05:40.642Z,62041.56
2024-05-09T06:08:09.221Z,62060.03
2024-05-09T06:10:39.908Z,62076.50
2024-05-09T06:13:11.423Z,62097.19
2024-05-09T06:15:40.655Z,62116.38
2024-05-09T06:18:11.272Z,62131.91
2024-05-09T06:20:41.901Z,62150.03
2024-05-09T06:23:10.936Z,62159.38
2024-05-09T06:25:39.130Z,62167.59
2024-05-09T06:28:07.062Z,62182.97
2024-05-09T06:30:40.111Z,62199.09
2024-05-09T06:33:12.156Z,62210.63
2024-05-09T06:35:41.965Z,62225.63
2024-05-09T06:38:10.190Z,62242.28
2024-05-09T06:40:43.651Z,62249.59
2024-05-09T06:43:13.330Z,62265.53
2024-05-09T06:45:41.228Z,62275.25
2024-05-09T06:48:10.310Z,62285.69
2024-05-09T06:50:39.895Z,62308.59
2024-05-09T06:53:09.229Z,62316.09
2024-05-09T06:55:37.974Z,62334.94
2024-05-09T06:58:07.346Z,62343.56
2024-05-09T07:00:39.635Z,62362.66
2024-05-09T07:03:19.607Z,62392.91
2024-05-09T07:05:49.391Z,62414.91
2024-05-09T07:08:18.691Z,62427.56
2024-05-09T07:10:47.741Z,62422.03
2024-05-09T07:13:16.724Z,62422.94
2024-05-09T07:15:44.463Z,62441.47
2024-05-09T07:18:17.978Z,62441.47
2024-05-09T07:20:48.843Z,62440.00
2024-05-09T07:23:18.851Z,62463.13
2024-05-09T07:25:47.741Z,62492.13
2024-05-09T07:28:20.870Z,62510.69
2024-05-09T07:30:48.662Z,62519.31
2024-05-09T07:33:22.208Z,62511.94
2024-05-09T07:35:51.509Z,62534.34
2024-05-09T07:38:19.461Z,62549.22
2024-05-09T07:40:48.034Z,62560.22
2024-05-09T07:43:16.651Z,62583.38
2024-05-09T07:45:52.328Z,62607.47
2024-05-09T07:52:45.940Z,62607.09
2024-05-09T07:53:49.801Z,62621.72
2024-05-09T07:56:22.773Z,62630.38
2024-05-09T07:58:54.193Z,62646.19
2024-05-09T08:01:22.428Z,62657.94
2024-05-09T08:03:50.773Z,62660.47
2024-05-09T08:06:18.629Z,62673.75
2024-05-09T08:08:49.317Z,62678.50
2024-05-09T08:11:18.034Z,62669.91
2024-05-09T08:13:46.128Z,62671.53
2024-05-09T08:16:14.577Z,62678.72
2024-05-09T08:18:42.573Z,62679.25
2024-05-09T08:21:10.303Z,62699.84
2024-05-09T08:23:38.039Z,62698.56
2024-05-09T08:26:09.308Z,62699.44
2024-05-09T08:28:36.986Z,62674.31
2024-05-09T08:31:06.941Z,62650.63
2024-05-09T08:33:35.412Z,62647.47
2024-05-09T08:36:03.942Z,62652.25
2024-05-09T08:38:31.656Z,62658.50
2024-05-09T08:41:00.302Z,62669.34
2024-05-09T08:43:30.552Z,62668.25
2024-05-09T08:46:04.854Z,62684.78
2024-05-09T08:48:36.948Z,62681.09
2024-05-09T08:51:05.994Z,62702.22
2024-05-09T08:53:33.950Z,62715.13
2024-05-09T08:56:03.035Z,62685.84
2024-05-09T08:58:31.753Z,62733.88
2024-05-09T09:01:00.781Z,62763.69
2024-05-09T09:03:33.371Z,62811.13
2024-05-09T09:06:07.117Z,62814.03
2024-05-09T09:08:34.569Z,62814.41
2024-05-09T09:11:03.096Z,62810.03
2024-05-09T09:13:30.867Z,62802.59
2024-05-09T09:16:00.031Z,62834.31
2024-05-09T09:18:33.234Z,62831.19
2024-05-09T09:21:03.955Z,62833.00
2024-05-09T09:23:31.869Z,62819.75
2024-05-09T09:26:00.368Z,62815.88
2024-05-09T09:28:29.786Z,62782.75
2024-05-09T09:31:04.885Z,62798.59
2024-05-09T09:33:35.598Z,62785.19
2024-05-09T09:36:04.915Z,62764.00
2024-05-09T09:38:37.716Z,62796.94
2024-05-09T09:41:08.271Z,62837.97
2024-05-09T09:43:37.516Z,62873.13
2024-05-09T09:46:09.633Z,62879.19
2024-05-09T09:48:40.933Z,62900.91
2024-05-09T09:51:09.131Z,62896.47
2024-05-09T09:53:38.387Z,62937.03
2024-05-09T09:56:10.609Z,62934.06
2024-05-09T09:58:40.614Z,62963.34
2024-05-09T10:01:08.436Z,62973.81
2024-05-09T10:03:36.742Z,62960.56
2024-05-09T10:06:05.976Z,62914.72
2024-05-09T10:08:35.639Z,62868.16
2024-05-09T10:11:04.653Z,62868.31
2024-05-09T10:13:35.498Z,62846.06
2024-05-09T10:16:11.488Z,62837.41
2024-05-09T10:18:41.073Z,62852.69
2024-05-09T10:21:21.777Z,62841.66
2024-05-09T10:24:12.836Z,62852.69
2024-05-09T10:26:41.140Z,62838.50
2024-05-09T10:29:16.657Z,62826.91
2024-05-09T10:31:46.725Z,62830.47
2024-05-09T10:34:22.201Z,62829.50
2024-05-09T10:36:54.825Z,62808.69
2024-05-09T10:39:23.152Z,62815.00
2024-05-09T10:41:50.902Z,62819.97
2024-05-09T10:44:18.838Z,62812.03
2024-05-09T10:46:46.749Z,62836.53
2024-05-09T10:49:15.067Z,62843.53
2024-05-09T10:51:45.411Z,62835.97
2024-05-09T10:54:13.508Z,62849.38
2024-05-09T10:56:42.113Z,62884.56
2024-05-09T10:59:09.886Z,62935.94
2024-05-09T11:01:37.747Z,62945.66
2024-05-09T11:04:06.029Z,62992.63
2024-05-09T11:06:36.189Z,63040.59
2024-05-09T11:09:06.049Z,63063.41
2024-05-09T11:11:33.814Z,63097.72
2024-05-09T11:14:12.386Z,63078.91
2024-05-09T11:16:40.115Z,63060.09
2024-05-09T11:19:13.889Z,63007.22
2024-05-09T11:21:41.829Z,62948.97
2024-05-09T11:24:11.162Z,62926.72
2024-05-09T11:26:39.400Z,62909.19
2024-05-09T11:29:07.063Z,62932.41
2024-05-09T11:31:46.406Z,62922.47
2024-05-09T11:34:15.244Z,62950.09
2024-05-09T11:36:43.063Z,62915.09
2024-05-09T11:39:11.714Z,62921.91
2024-05-09T11:41:39.502Z,62930.97
2024-05-09T11:44:07.277Z,62933.34
2024-05-09T11:46:35.076Z,62906.97
2024-05-09T11:49:03.638Z,62914.72
2024-05-09T11:51:31.597Z,62917.88
2024-05-09T11:53:59.344Z,62917.72
2024-05-09T11:56:29.937Z,62907.34
2024-05-09T11:58:59.172Z,62926.88
2024-05-09T12:01:28.633Z,62900.34
2024-05-09T12:03:58.465Z,62884.16
2024-05-09T12:06:27.574Z,62871.47
2024-05-09T12:08:58.824Z,62844.25
2024-05-09T12:11:29.672Z,62830.63
2024-05-09T12:13:58.634Z,62838.50
2024-05-09T12:16:27.537Z,62850.09
2024-05-09T12:18:55.882Z,62858.53
2024-05-09T12:21:25.227Z,62881.03
2024-05-09T12:23:52.975Z,62907.19
2024-05-09T12:26:20.952Z,62889.84
2024-05-09T12:28:48.709Z,62864.84
2024-05-09T12:31:16.655Z,62904.97
2024-05-09T12:33:44.559Z,62917.47
2024-05-09T12:36:12.354Z,62923.03
2024-05-09T12:38:41.300Z,62905.72
2024-05-09T12:41:10.410Z,62918.66
2024-05-09T12:43:38.131Z,62903.66
2024-05-09T12:46:05.983Z,62910.91
2024-05-09T12:48:34.008Z,62907.50
2024-05-09T12:51:01.937Z,62923.78
2024-05-09T12:53:29.725Z,62946.28
2024-05-09T12:56:02.242Z,62962.06
2024-05-09T12:58:31.694Z,62970.38
2024-05-09T13:00:59.809Z,62977.53
2024-05-09T13:03:29.038Z,62989.72
2024-05-09T13:05:58.130Z,63014.97
2024-05-09T13:08:25.932Z,62986.00
2024-05-09T13:10:55.372Z,62982.34
2024-05-09T13:13:23.136Z,62977.38
2024-05-09T13:15:50.954Z,62973.28
2024-05-09T13:18:18.803Z,62955.75
2024-05-09T13:20:46.683Z,62954.88
2024-05-09T13:23:14.365Z,62977.16
2024-05-09T13:25:42.211Z,62996.97
2024-05-09T13:28:10.189Z,63010.34
2024-05-09T13:30:40.921Z,62993.00
2024-05-09T13:33:12.152Z,62989.31
2024-05-09T13:35:46.869Z,62988.59
2024-05-09T13:38:19.428Z,62990.09
2024-05-09T13:40:49.035Z,62991.13
2024-05-09T13:43:18.426Z,62977.00
2024-05-09T13:45:46.816Z,62963.91
2024-05-09T13:48:14.855Z,62956.56
2024-05-09T13:50:42.701Z,62957.66
2024-05-09T13:53:10.439Z,62942.91
2024-05-09T13:55:39.378Z,62937.38
2024-05-09T13:58:08.755Z,62899.78
2024-05-09T14:00:45.173Z,62909.41
2024-05-09T14:03:19.993Z,62916.94
2024-05-09T14:05:50.991Z,62911.06
2024-05-09T14:08:21.400Z,62919.31
2024-05-09T14:10:49.598Z,62898.84
2024-05-09T14:13:17.915Z,62892.13
2024-05-09T14:15:47.599Z,62882.91
2024-05-09T14:18:16.443Z,62887.34
2024-05-09T14:20:44.211Z,62901.31
2024-05-09T14:23:11.946Z,62891.91
2024-05-09T14:25:42.797Z,62871.47
2024-05-09T14:28:13.179Z,62872.03
2024-05-09T14:30:41.989Z,62872.56
2024-05-09T14:33:10.255Z,62867.22
2024-05-09T14:35:39.180Z,62891.91
2024-05-09T14:38:08.847Z,62881.94
2024-05-09T14:40:42.305Z,62879.44
2024-05-09T14:43:15.909Z,62883.06
2024-05-09T14:45:45.041Z,62875.50
2024-05-09T14:48:15.241Z,62860.44
2024-05-09T14:50:44.098Z,62856.81
2024-05-09T14:53:13.649Z,62867.44
2024-05-09T14:55:43.377Z,62865.16
2024-05-09T14:58:12.838Z,62917.47
2024-05-09T15:00:46.514Z,62952.44
2024-05-09T15:03:22.406Z,63002.56
2024-05-09T15:05:51.460Z,63037.09
2024-05-09T15:08:20.332Z,63060.63
2024-05-09T15:10:50.108Z,63044.59
2024-05-09T15:13:19.670Z,63094.38
2024-05-09T15:15:50.663Z,63130.91
2024-05-09T15:18:18.688Z,63162.59
2024-05-09T15:20:50.293Z,63157.47
2024-05-09T15:23:18.425Z,63145.22
2024-05-09T15:25:46.454Z,63125.38
2024-05-09T15:28:14.284Z,63114.31
2024-05-09T15:30:45.225Z,63088.28
2024-05-09T15:33:14.493Z,63114.00
2024-05-09T15:35:42.372Z,63141.81
2024-05-09T15:38:10.270Z,63209.50
2024-05-09T15:40:40.410Z,63249.91
2024-05-09T15:43:11.129Z,63282.63
2024-05-09T15:45:40.928Z,63248.41
2024-05-09T15:48:10.420Z,63202.16
2024-05-09T15:50:41.453Z,63150.25
2024-05-09T15:53:12.232Z,63192.91
2024-05-09T15:55:41.298Z,63203.97
2024-05-09T15:58:09.700Z,63202.16
2024-05-09T16:00:41.429Z,63239.25
2024-05-09T16:03:12.392Z,63265.41
2024-05-09T16:05:41.655Z,63296.47
2024-05-09T16:08:09.980Z,63317.38
2024-05-09T16:10:44.549Z,63364.66
2024-05-09T16:13:13.490Z,63358.00
2024-05-09T16:15:41.465Z,63388.63
2024-05-09T16:18:09.434Z,63303.13
2024-05-09T16:20:40.618Z,63329.53
2024-05-09T16:23:11.212Z,63314.03
2024-05-09T16:25:40.027Z,63319.31
2024-05-09T16:28:10.474Z,63266.00
2024-05-09T16:30:39.999Z,63207.69
2024-05-09T16:33:08.828Z,63235.38
2024-05-09T16:35:37.883Z,63299.78
2024-05-09T16:38:07.102Z,63332.34
2024-05-09T16:40:39.216Z,63360.19
2024-05-09T16:43:10.458Z,63290.22
2024-05-09T16:45:44.606Z,63352.28
2024-05-09T16:48:14.246Z,63351.34
2024-05-09T16:50:42.166Z,63341.19
2024-05-09T16:53:09.920Z,63235.53
2024-05-09T16:55:38.431Z,63204.53
